Time;durP1;ratioP1;P1;durP2;ratioP2;P2;SDS_P1;SDS_P2;PMS_P1;PMS_P2;Temp;Humidity;BMP_temperature;BMP_pressure;BME280_temperature;BME280_humidity;BME280_pressure;Samples;Min_cycle;Max_cycle;Signal;HPM_P1;HPM_P2
2022/04/17 07:27:00;;;;;;;5.90;4.10;;;7.30;85.80;;;;;;5070669;28;20616;-68
2022/04/17 07:29:26;;;;;;;4.57;3.77;;;7.40;85.40;;;;;;5070602;28;20193;-68
2022/04/17 07:32:09;;;;;;;5.47;3.90;;;7.60;85.70;;;;;;5070721;28;20178;-68
2022/04/17 07:34:34;;;;;;;5.43;4.10;;;7.80;84.10;;;;;;5070595;28;20166;-68
2022/04/17 07:37:00;;;;;;;4.55;4.10;;;8.00;83.20;;;;;;5069628;28;20205;-68
2022/04/17 07:39:26;;;;;;;4.20;3.80;;;8.20;81.60;;;;;;5070779;28;20580;-68
2022/04/17 07:41:51;;;;;;;4.35;3.78;;;8.30;80.30;;;;;;5069237;28;20204;-68
2022/04/17 07:44:17;;;;;;;4.30;3.80;;;8.50;79.80;;;;;;5069463;28;20181;-68
2022/04/17 07:46:42;;;;;;;4.20;3.67;;;8.70;79.10;;;;;;5069097;28;20213;-68
2022/04/17 07:49:09;;;;;;;4.63;4.20;;;8.90;77.60;;;;;;5069462;28;20170;-68
2022/04/17 07:51:35;;;;;;;4.20;3.85;;;9.10;75.90;;;;;;5069130;28;20162;-68
2022/04/17 07:54:01;;;;;;;3.50;3.20;;;9.30;75.60;;;;;;5069106;28;20188;-68
2022/04/17 07:56:27;;;;;;;5.15;3.58;;;9.40;75.00;;;;;;5068984;28;20194;-68
2022/04/17 07:58:53;;;;;;;7.03;3.55;;;9.60;71.90;;;;;;5068869;28;20174;-68
2022/04/17 08:01:18;;;;;;;4.43;3.30;;;9.70;71.70;;;;;;5070394;28;20181;-68
2022/04/17 08:06:10;;;;;;;5.13;3.45;;;9.90;69.30;;;;;;5070083;28;20209;-68
2022/04/17 08:08:39;;;;;;;3.38;3.10;;;9.90;66.50;;;;;;5069029;28;20173;-68
2022/04/17 08:11:06;;;;;;;3.50;3.00;;;9.80;66.00;;;;;;5069340;28;20280;-68
2022/04/17 08:13:32;;;;;;;5.90;3.38;;;9.80;66.70;;;;;;5068675;28;20181;-68
2022/04/17 08:15:59;;;;;;;4.85;3.10;;;9.80;65.90;;;;;;5068515;28;20206;-68
2022/04/17 08:18:24;;;;;;;3.42;3.13;;;9.80;65.30;;;;;;5068546;28;20626;-68
2022/04/17 08:20:54;;;;;;;4.50;3.63;;;9.80;65.00;;;;;;5069484;28;20209;-69
2022/04/17 08:23:21;;;;;;;4.30;3.20;;;9.90;64.60;;;;;;5069587;28;20172;-68
2022/04/17 08:25:49;;;;;;;3.70;2.90;;;10.00;66.10;;;;;;5068474;28;20217;-68
2022/04/17 08:28:34;;;;;;;3.28;3.00;;;10.20;66.10;;;;;;5068731;28;20596;-68
2022/04/17 08:30:59;;;;;;;4.10;3.30;;;10.50;67.20;;;;;;5069384;28;20244;-68
2022/04/17 08:33:26;;;;;;;3.58;3.28;;;10.60;63.50;;;;;;5068442;28;20245;-68
2022/04/17 08:35:53;;;;;;;3.90;3.55;;;10.80;62.80;;;;;;5069265;28;20189;-68
2022/04/17 08:38:22;;;;;;;3.30;3.00;;;10.80;62.60;;;;;;5056616;28;20179;-68
2022/04/17 08:40:50;;;;;;;2.60;2.40;;;10.90;63.60;;;;;;5055794;28;20209;-68
2022/04/17 08:43:18;;;;;;;2.40;2.30;;;11.00;57.60;;;;;;5054877;28;20178;-68
2022/04/17 08:45:46;;;;;;;4.32;2.70;;;11.20;56.10;;;;;;5054944;28;20300;-68
2022/04/17 08:48:11;;;;;;;2.90;2.60;;;11.30;55.50;;;;;;5055113;28;20179;-68
2022/04/17 08:50:38;;;;;;;2.70;2.50;;;11.30;55.30;;;;;;5054723;28;20241;-68
2022/04/17 08:53:05;;;;;;;3.42;2.55;;;11.40;52.90;;;;;;5056055;28;20212;-69
2022/04/17 08:55:31;;;;;;;2.92;2.50;;;11.50;53.10;;;;;;5054651;28;20303;-69
2022/04/17 08:57:57;;;;;;;2.50;2.30;;;11.70;54.60;;;;;;5055529;28;20265;-70
2022/04/17 09:00:23;;;;;;;3.67;2.50;;;11.90;53.30;;;;;;5055100;28;20252;-70
2022/04/17 09:02:50;;;;;;;2.75;2.33;;;12.20;51.60;;;;;;5055339;28;20267;-67
2022/04/17 09:05:18;;;;;;;2.83;2.30;;;12.40;50.50;;;;;;5054305;28;20205;-67
2022/04/17 09:07:53;;;;;;;2.78;2.40;;;12.30;48.30;;;;;;5055566;28;20232;-67
2022/04/17 09:10:31;;;;;;;3.88;2.50;;;12.60;48.60;;;;;;5054276;28;20177;-67
2022/04/17 09:16:26;;;;;;;3.67;2.35;;;12.40;47.80;;;;;;5055586;28;20197;-70
2022/04/17 09:18:55;;;;;;;2.63;2.30;;;12.10;49.00;;;;;;5055353;28;20185;-70
2022/04/17 09:21:34;;;;;;;3.53;2.42;;;12.10;49.90;;;;;;5054068;28;20218;-70
2022/04/17 09:24:13;;;;;;;6.45;2.67;;;12.30;50.10;;;;;;5054462;28;20679;-70
2022/04/17 09:26:50;;;;;;;2.55;2.35;;;12.50;51.20;;;;;;5055559;28;20259;-70
2022/04/17 09:29:55;;;;;;;2.60;2.40;;;12.80;50.70;;;;;;5054073;28;20177;-69
2022/04/17 09:32:21;;;;;;;3.33;2.38;;;13.00;48.10;;;;;;5054303;28;20552;-69
2022/04/17 09:38:08;;;;;;;3.00;2.08;;;13.60;45.80;;;;;;5055624;28;20169;-69
2022/04/17 09:41:07;;;;;;;3.00;2.28;;;13.50;43.90;;;;;;5055397;28;20174;-70
2022/04/17 09:43:47;;;;;;;2.40;2.20;;;13.60;45.10;;;;;;5054201;28;20645;-70
2022/04/17 09:46:14;;;;;;;2.92;2.42;;;13.60;43.10;;;;;;5066488;28;20210;-69
2022/04/17 09:48:47;;;;;;;2.70;1.90;;;13.60;43.30;;;;;;5066352;28;20335;-70
2022/04/17 09:51:27;;;;;;;2.75;2.17;;;13.50;43.00;;;;;;5068203;28;20158;-70
2022/04/17 09:54:17;;;;;;;4.82;2.50;;;13.40;44.40;;;;;;5068122;28;20181;-70
2022/04/17 09:56:46;;;;;;;2.85;2.42;;;13.30;45.30;;;;;;5067745;28;20213;-67
2022/04/17 09:59:21;;;;;;;2.90;2.20;;;13.30;45.80;;;;;;5067078;28;20216;-67
2022/04/17 10:01:57;;;;;;;3.22;2.08;;;13.20;44.80;;;;;;5066681;28;20181;-67
2022/04/17 10:04:27;;;;;;;4.80;2.95;;;13.20;44.50;;;;;;5066501;28;20237;-67
2022/04/17 10:06:56;;;;;;;3.42;2.70;;;13.10;43.90;;;;;;5066757;28;20245;-67
2022/04/17 10:09:22;;;;;;;7.75;5.72;;;13.20;45.50;;;;;;5066498;28;20200;-67
2022/04/17 10:11:51;;;;;;;4.95;3.78;;;13.40;45.00;;;;;;5066308;28;20205;-67
2022/04/17 10:14:47;;;;;;;4.40;2.65;;;13.40;43.80;;;;;;5056558;28;20655;-68
2022/04/17 10:17:47;;;;;;;12.23;6.93;;;13.20;44.10;;;;;;5053395;28;20194;-61
2022/04/17 10:20:44;;;;;;;116.10;73.82;;;13.00;44.80;;;;;;5054316;28;20169;-60
2022/04/17 10:23:12;;;;;;;3.38;3.08;;;13.00;48.40;;;;;;5053592;28;20680;-60
2022/04/17 10:25:39;;;;;;;5.50;4.38;;;13.00;45.80;;;;;;5053570;28;20222;-59
2022/04/17 10:28:08;;;;;;;26.60;16.02;;;13.00;46.10;;;;;;5053622;28;20507;-59
2022/04/17 10:31:04;;;;;;;9.93;6.38;;;13.30;49.10;;;;;;5054866;28;20174;-58
2022/04/17 10:33:42;;;;;;;28.95;18.02;;;13.40;46.30;;;;;;5053615;28;20212;-58
2022/04/17 10:36:36;;;;;;;6.22;4.93;;;13.80;47.10;;;;;;5052757;28;20547;-59
2022/04/17 10:39:20;;;;;;;4.00;3.50;;;13.90;45.00;;;;;;5053469;28;20166;-60
2022/04/17 10:41:46;;;;;;;5.15;3.33;;;13.90;46.30;;;;;;5053477;28;20166;-59
2022/04/17 10:44:12;;;;;;;4.28;3.20;;;14.20;45.00;;;;;;5053381;28;20660;-59
2022/04/17 10:46:48;;;;;;;6.32;4.13;;;14.20;43.40;;;;;;5053580;28;20216;-58
2022/04/17 10:49:16;;;;;;;5.00;3.25;;;14.30;45.20;;;;;;5052778;28;20170;-58
2022/04/17 10:51:50;;;;;;;9.15;5.45;;;14.20;43.00;;;;;;5052796;28;20205;-60
2022/04/17 10:54:17;;;;;;;6.43;3.95;;;14.40;45.50;;;;;;5052440;28;20173;-60
2022/04/17 10:56:55;;;;;;;3.83;2.70;;;14.70;45.40;;;;;;5053675;28;20676;-60
2022/04/17 11:00:13;;;;;;;3.22;2.38;;;14.50;40.60;;;;;;5052544;28;20178;-60
2022/04/17 11:02:38;;;;;;;6.32;4.47;;;14.20;41.50;;;;;;5030492;28;20189;-60
2022/04/17 11:05:06;;;;;;;4.82;2.30;;;14.20;44.60;;;;;;5052061;28;20562;-60
2022/04/17 11:07:32;;;;;;;4.15;1.80;;;14.30;41.60;;;;;;5053760;28;20170;-60
2022/04/17 11:13:46;;;;;;;2.10;2.00;;;14.40;43.20;;;;;;5055060;28;20163;-60
2022/04/17 11:16:13;;;;;;;2.90;2.13;;;14.40;40.00;;;;;;5053566;28;20197;-60
2022/04/17 11:19:02;;;;;;;3.05;2.30;;;14.30;39.60;;;;;;5054231;28;20182;-60
2022/04/17 11:24:54;;;;;;;6.07;3.65;;;14.00;35.80;;;;;;5054115;28;20200;-61
2022/04/17 11:27:46;;;;;;;9.75;3.63;;;14.10;44.70;;;;;;5053188;28;20189;-60
2022/04/17 11:30:46;;;;;;;10.23;4.05;;;14.50;43.00;;;;;;5052660;28;20171;-62
2022/04/17 11:33:23;;;;;;;7.78;2.40;;;14.70;43.10;;;;;;5051987;28;20638;-62
2022/04/17 11:35:49;;;;;;;4.72;1.90;;;14.70;40.40;;;;;;5052890;28;20202;-61
2022/04/17 11:38:14;;;;;;;4.13;2.55;;;15.00;39.40;;;;;;5053153;28;20162;-61
2022/04/17 11:40:44;;;;;;;5.25;1.80;;;15.10;43.80;;;;;;5051938;28;20178;-61
2022/04/17 11:43:12;;;;;;;6.43;2.13;;;15.40;40.50;;;;;;5053387;28;20653;-61
2022/04/17 11:45:38;;;;;;;3.60;2.55;;;15.10;38.20;;;;;;5052135;28;20628;-61
2022/04/17 11:48:07;;;;;;;2.60;1.77;;;15.10;38.30;;;;;;5053341;28;20172;-61
2022/04/17 11:50:36;;;;;;;1.90;1.73;;;14.50;35.20;;;;;;5053142;28;20189;-64
2022/04/17 11:53:35;;;;;;;2.65;1.83;;;14.60;37.40;;;;;;5051453;28;20649;-62
2022/04/17 11:56:02;;;;;;;2.08;1.77;;;14.80;38.30;;;;;;5051725;28;20292;-59
2022/04/17 11:58:30;;;;;;;2.85;1.90;;;14.90;38.50;;;;;;5051860;28;20175;-61
2022/04/17 12:01:01;;;;;;;2.08;1.88;;;15.00;34.90;;;;;;5054453;28;20186;-61
2022/04/17 12:03:46;;;;;;;3.97;2.30;;;15.00;37.50;;;;;;5055049;28;20185;-61
2022/04/17 12:06:16;;;;;;;3.53;2.30;;;14.90;37.70;;;;;;5052887;28;20216;-61
2022/04/17 12:08:42;;;;;;;1.70;1.60;;;14.50;35.80;;;;;;5052830;28;20171;-63
2022/04/17 12:11:08;;;;;;;4.80;2.22;;;14.60;38.10;;;;;;5051598;28;20170;-62
2022/04/17 12:13:34;;;;;;;4.90;2.80;;;14.90;40.80;;;;;;5054903;28;20184;-62
2022/04/17 12:16:02;;;;;;;4.03;2.92;;;15.20;45.10;;;;;;5055210;28;20202;-61
2022/04/17 12:18:35;;;;;;;7.22;2.30;;;15.50;43.40;;;;;;5055609;28;20590;-61
2022/04/17 12:21:30;;;;;;;2.38;2.17;;;15.70;40.90;;;;;;5056020;28;20687;-60
2022/04/17 12:27:21;;;;;;;2.50;1.83;;;16.00;37.50;;;;;;5057444;28;20236;-67
2022/04/17 12:29:50;;;;;;;2.50;2.00;;;16.00;37.00;;;;;;5055198;28;20182;-67
2022/04/17 12:32:17;;;;;;;4.45;1.73;;;15.80;35.70;;;;;;5056589;28;20154;-67
2022/04/17 12:34:46;;;;;;;2.08;1.88;;;15.80;36.90;;;;;;5055079;28;20174;-67
2022/04/17 12:37:24;;;;;;;2.08;1.92;;;15.70;36.60;;;;;;5054945;28;20259;-67
2022/04/17 12:39:50;;;;;;;2.50;2.10;;;15.50;36.20;;;;;;5055015;28;20185;-67
2022/04/17 12:42:17;;;;;;;4.05;1.80;;;15.10;35.40;;;;;;5054865;28;20185;-67
2022/04/17 12:44:44;;;;;;;2.45;2.25;;;15.10;35.90;;;;;;5054731;28;20182;-67
2022/04/17 12:47:15;;;;;;;2.10;2.00;;;15.20;36.30;;;;;;5055986;28;20201;-67
2022/04/17 12:49:41;;;;;;;4.55;2.00;;;15.00;36.50;;;;;;5054769;28;20651;-67
2022/04/17 12:52:07;;;;;;;1.88;1.77;;;14.90;37.20;;;;;;5054742;28;20178;-67
2022/04/17 12:54:37;;;;;;;3.38;2.40;;;14.70;37.00;;;;;;5054621;28;20178;-67
2022/04/17 12:57:12;;;;;;;1.90;1.80;;;14.80;37.70;;;;;;5055112;28;20198;-67
2022/04/17 12:59:42;;;;;;;2.50;2.17;;;15.10;38.90;;;;;;5054747;28;20178;-67
2022/04/17 13:02:19;;;;;;;1.85;1.75;;;15.40;37.00;;;;;;5056234;28;20163;-67
2022/04/17 13:04:46;;;;;;;1.95;1.83;;;15.90;38.20;;;;;;5055344;28;20178;-67
2022/04/17 13:07:14;;;;;;;2.17;2.00;;;16.40;36.50;;;;;;5055304;28;20228;-67
2022/04/17 13:10:09;;;;;;;3.05;1.52;;;16.80;35.10;;;;;;5055015;28;20529;-67
2022/04/17 13:12:36;;;;;;;1.67;1.58;;;16.80;33.90;;;;;;5055141;28;20189;-67
2022/04/17 13:15:07;;;;;;;4.22;1.80;;;16.80;35.10;;;;;;5055685;28;20189;-68
2022/04/17 13:17:50;;;;;;;1.85;1.65;;;16.60;32.70;;;;;;5055765;28;20182;-67
2022/04/17 13:20:20;;;;;;;2.00;1.60;;;16.10;32.60;;;;;;5055556;28;20193;-67
2022/04/17 13:22:47;;;;;;;1.80;1.70;;;15.90;31.20;;;;;;5055366;28;20254;-67
2022/04/17 13:25:14;;;;;;;1.90;1.80;;;15.90;31.00;;;;;;5055754;28;20217;-68
2022/04/17 13:27:40;;;;;;;1.70;1.60;;;16.00;30.60;;;;;;5054541;28;20169;-67
2022/04/17 13:30:10;;;;;;;2.05;1.70;;;16.10;31.80;;;;;;5055236;28;20189;-67
2022/04/17 13:32:37;;;;;;;1.83;1.70;;;16.20;32.30;;;;;;5054087;28;20209;-67
2022/04/17 13:35:04;;;;;;;2.53;1.73;;;16.30;32.10;;;;;;5055019;28;20174;-68
2022/04/17 13:40:13;;;;;;;1.80;1.70;;;15.90;30.30;;;;;;5055080;28;20199;-67
2022/04/17 13:42:39;;;;;;;2.25;2.05;;;15.80;32.30;;;;;;5055326;28;20162;-67
2022/04/17 13:45:09;;;;;;;2.15;1.67;;;15.70;31.10;;;;;;5053619;28;20197;-68
2022/04/17 13:47:37;;;;;;;1.95;1.80;;;15.70;31.60;;;;;;5053693;28;20660;-67
2022/04/17 13:50:06;;;;;;;1.67;1.58;;;15.70;31.80;;;;;;5047991;28;20159;-68
2022/04/17 13:52:33;;;;;;;3.30;1.92;;;15.80;31.90;;;;;;5043382;28;20228;-69
2022/04/17 13:54:58;;;;;;;2.92;1.50;;;15.70;29.90;;;;;;5042410;28;20178;-69
2022/04/17 13:57:24;;;;;;;1.55;1.45;;;15.70;30.00;;;;;;5045056;28;20249;-68
2022/04/17 13:59:50;;;;;;;1.70;1.60;;;15.90;29.80;;;;;;5044089;28;20166;-69
2022/04/17 14:02:15;;;;;;;1.65;1.42;;;16.10;29.00;;;;;;5044290;28;20163;-69
2022/04/17 14:04:41;;;;;;;2.00;1.80;;;16.10;29.50;;;;;;5041851;28;20210;-69
2022/04/17 14:07:09;;;;;;;1.85;1.50;;;16.00;28.70;;;;;;5041672;28;20579;-69
2022/04/17 14:09:37;;;;;;;2.50;1.60;;;15.70;29.30;;;;;;5043148;28;20177;-69
2022/04/17 14:12:06;;;;;;;1.70;1.60;;;15.40;29.30;;;;;;5050184;28;20181;-69
2022/04/17 14:14:32;;;;;;;1.67;1.58;;;15.00;29.20;;;;;;5053407;28;20231;-69
2022/04/17 14:16:58;;;;;;;1.63;1.52;;;14.80;29.50;;;;;;5053743;28;20209;-69
2022/04/17 14:19:24;;;;;;;1.88;1.45;;;14.50;29.60;;;;;;5054174;28;20174;-69
2022/04/17 14:21:49;;;;;;;1.85;1.70;;;14.30;30.00;;;;;;5053572;28;20177;-69
2022/04/17 14:24:15;;;;;;;1.80;1.70;;;14.10;30.20;;;;;;5053463;28;20224;-69
2022/04/17 14:26:41;;;;;;;6.88;1.88;;;14.00;29.70;;;;;;5053432;28;20229;-69
2022/04/17 14:29:07;;;;;;;2.33;1.60;;;14.10;29.90;;;;;;5055012;28;20174;-69
2022/04/17 14:31:32;;;;;;;3.25;1.73;;;14.10;29.40;;;;;;5054569;28;20647;-69
2022/04/17 14:33:58;;;;;;;2.25;1.77;;;14.10;29.90;;;;;;5053551;28;20170;-67
2022/04/17 14:36:24;;;;;;;1.70;1.60;;;14.10;30.80;;;;;;5052724;28;20198;-67
2022/04/17 14:38:50;;;;;;;2.85;1.92;;;14.10;32.60;;;;;;5053079;28;20659;-67
2022/04/17 14:41:15;;;;;;;1.85;1.75;;;14.10;32.20;;;;;;5052973;28;20228;-67
2022/04/17 14:43:42;;;;;;;3.92;1.83;;;14.10;31.30;;;;;;5053213;28;20272;-67
2022/04/17 14:46:07;;;;;;;2.25;1.60;;;14.10;31.40;;;;;;5053680;28;20205;-67
2022/04/17 14:48:37;;;;;;;2.25;1.65;;;14.00;29.80;;;;;;5052890;28;20640;-67
2022/04/17 14:51:03;;;;;;;1.73;1.63;;;14.00;29.80;;;;;;5052475;28;20544;-67
2022/04/17 14:53:30;;;;;;;1.63;1.52;;;14.10;30.60;;;;;;5052521;28;20173;-67
2022/04/17 14:55:57;;;;;;;2.65;1.70;;;14.20;30.10;;;;;;5052649;28;20198;-67
2022/04/17 14:58:25;;;;;;;3.03;1.80;;;14.10;29.90;;;;;;5052398;28;20209;-67
2022/04/17 15:00:51;;;;;;;1.80;1.70;;;14.10;29.20;;;;;;5053192;28;20524;-67
2022/04/17 15:03:17;;;;;;;2.33;1.70;;;14.10;29.50;;;;;;5052361;28;20181;-67
2022/04/17 15:05:42;;;;;;;1.52;1.42;;;14.10;29.40;;;;;;5052144;28;20263;-68
2022/04/17 15:08:08;;;;;;;1.90;1.63;;;14.00;30.10;;;;;;5052274;28;20182;-67
2022/04/17 15:10:33;;;;;;;1.70;1.60;;;14.00;30.00;;;;;;5052213;28;20206;-67
2022/04/17 15:13:00;;;;;;;3.15;1.85;;;14.00;29.40;;;;;;5052362;28;20167;-68
2022/04/17 15:15:25;;;;;;;3.95;2.22;;;14.00;29.20;;;;;;5053657;28;20217;-67
2022/04/17 15:18:35;;;;;;;1.70;1.60;;;14.00;29.90;;;;;;5052107;28;20206;-68
2022/04/17 15:21:16;;;;;;;2.00;1.85;;;14.00;29.80;;;;;;5053632;28;20186;-68
2022/04/17 15:24:41;;;;;;;3.45;2.60;;;14.00;30.00;;;;;;5052106;28;20533;-69
2022/04/17 15:27:34;;;;;;;3.17;2.35;;;14.00;30.60;;;;;;5054203;28;20232;-70
2022/04/17 15:30:04;;;;;;;2.50;2.30;;;14.00;31.30;;;;;;5052098;28;20179;-67
2022/04/17 15:32:30;;;;;;;2.35;2.20;;;14.00;31.30;;;;;;5052811;28;20175;-67
2022/04/17 15:34:55;;;;;;;3.90;2.90;;;14.00;29.80;;;;;;5052042;28;20189;-71
2022/04/17 15:37:21;;;;;;;3.47;2.17;;;13.90;30.40;;;;;;5052254;28;20201;-70
2022/04/17 15:48:37;;;;;;;2.30;1.80;;;13.70;30.90;;;;;;5057048;28;20212;-70
2022/04/17 15:51:03;;;;;;;3.65;2.15;;;13.70;31.90;;;;;;5055903;28;20182;-70
2022/04/17 15:56:52;;;;;;;2.50;1.90;;;13.70;31.40;;;;;;5057259;28;20264;-69
2022/04/17 15:59:18;;;;;;;1.88;1.67;;;13.70;31.40;;;;;;5055687;28;20170;-69
2022/04/17 16:01:43;;;;;;;2.83;1.70;;;13.70;30.50;;;;;;5055697;28;20171;-69
2022/04/17 16:04:12;;;;;;;2.25;1.95;;;13.60;30.50;;;;;;5055680;28;20621;-69
2022/04/17 16:06:37;;;;;;;2.25;2.05;;;13.60;30.30;;;;;;5055936;28;20217;-69
2022/04/17 16:09:16;;;;;;;1.92;1.83;;;13.60;30.00;;;;;;5057402;28;20180;-70
2022/04/17 16:12:12;;;;;;;2.35;1.90;;;13.60;30.80;;;;;;5055519;28;20656;-67
2022/04/17 16:14:38;;;;;;;2.42;2.10;;;13.60;31.60;;;;;;5055614;28;20170;-69
2022/04/17 16:17:04;;;;;;;3.35;2.40;;;13.60;30.60;;;;;;5055325;28;20198;-70
2022/04/17 16:19:30;;;;;;;1.77;1.67;;;13.60;30.00;;;;;;5056448;28;20181;-70
2022/04/17 16:22:30;;;;;;;2.28;2.08;;;13.50;29.60;;;;;;5056526;28;20224;-69
2022/04/17 16:24:56;;;;;;;2.10;1.90;;;13.50;29.70;;;;;;5056595;28;20178;-69
2022/04/17 16:27:25;;;;;;;3.10;2.47;;;13.40;30.50;;;;;;5056399;28;20200;-69
2022/04/17 16:30:34;;;;;;;2.58;2.10;;;13.40;30.90;;;;;;5053637;28;20174;-69
2022/04/17 16:33:00;;;;;;;2.28;2.08;;;13.30;31.80;;;;;;5035173;28;20171;-67
2022/04/17 16:35:26;;;;;;;1.98;1.75;;;13.40;31.40;;;;;;5036218;28;20195;-67
2022/04/17 16:37:56;;;;;;;2.03;1.83;;;13.40;30.60;;;;;;5035340;28;20257;-69
2022/04/17 16:40:23;;;;;;;2.65;2.00;;;13.30;31.60;;;;;;5035579;28;20179;-69
2022/04/17 16:42:48;;;;;;;2.53;1.80;;;13.30;32.10;;;;;;5035585;28;20560;-69
2022/04/17 16:45:14;;;;;;;3.92;2.10;;;13.20;31.40;;;;;;5035474;28;20199;-69
2022/04/17 16:47:55;;;;;;;1.73;1.63;;;13.20;31.10;;;;;;5043514;28;20174;-69
2022/04/17 16:50:29;;;;;;;2.33;1.90;;;13.20;31.00;;;;;;5056370;28;20180;-69
2022/04/17 16:52:54;;;;;;;2.08;1.98;;;13.10;31.70;;;;;;5054834;28;20269;-69
2022/04/17 16:55:20;;;;;;;2.10;1.90;;;13.10;31.00;;;;;;5055819;28;20273;-69
2022/04/17 17:00:29;;;;;;;4.22;1.90;;;13.00;32.10;;;;;;5056042;28;20185;-69
2022/04/17 17:02:55;;;;;;;3.60;2.05;;;13.00;32.70;;;;;;5054812;28;20206;-67
2022/04/17 17:05:21;;;;;;;3.97;2.08;;;12.90;32.40;;;;;;5054716;28;20233;-68
2022/04/17 17:07:47;;;;;;;5.10;2.03;;;12.90;33.00;;;;;;5054469;28;20563;-67
2022/04/17 17:10:13;;;;;;;2.03;1.75;;;12.80;33.10;;;;;;5055666;28;20202;-69
2022/04/17 17:12:39;;;;;;;3.03;1.90;;;12.70;33.40;;;;;;5055984;28;20204;-69
2022/04/17 17:15:06;;;;;;;1.73;1.63;;;12.70;33.70;;;;;;5054615;28;20225;-69
2022/04/17 17:17:32;;;;;;;6.07;2.00;;;12.60;33.80;;;;;;5056072;28;20177;-69
2022/04/17 17:19:59;;;;;;;1.92;1.83;;;12.60;34.20;;;;;;5054435;28;20166;-67
2022/04/17 17:22:28;;;;;;;2.00;1.80;;;12.50;34.30;;;;;;5054275;28;20170;-67
2022/04/17 17:24:53;;;;;;;2.97;1.80;;;12.60;33.70;;;;;;5054338;28;20175;-68
2022/04/17 17:27:20;;;;;;;2.50;1.92;;;12.50;34.00;;;;;;5053889;28;20205;-69
2022/04/17 17:29:46;;;;;;;2.33;2.00;;;12.50;33.70;;;;;;5054629;28;20174;-69
2022/04/17 17:32:11;;;;;;;1.90;1.70;;;12.50;33.70;;;;;;5054921;28;20613;-69
2022/04/17 17:34:37;;;;;;;2.60;1.63;;;12.40;34.90;;;;;;5054823;28;20178;-69
2022/04/17 17:37:03;;;;;;;2.35;1.83;;;12.30;34.00;;;;;;5054656;28;20611;-69
2022/04/17 17:39:29;;;;;;;1.92;1.77;;;12.30;34.00;;;;;;5054521;28;20201;-67
2022/04/17 17:41:55;;;;;;;1.95;1.80;;;12.20;34.20;;;;;;5054175;28;20186;-67
2022/04/17 17:44:24;;;;;;;1.98;1.73;;;12.10;34.60;;;;;;5054141;28;20182;-67
2022/04/17 17:46:50;;;;;;;2.45;1.70;;;12.00;35.00;;;;;;5053809;28;20296;-66
2022/04/17 17:49:15;;;;;;;2.20;2.00;;;11.90;35.50;;;;;;5047787;28;20685;-68
2022/04/17 17:51:41;;;;;;;3.50;1.70;;;11.90;35.70;;;;;;5034903;28;20171;-69
2022/04/17 17:54:07;;;;;;;3.58;2.40;;;11.90;36.50;;;;;;5034978;28;20171;-71
2022/04/17 17:56:36;;;;;;;3.35;2.33;;;11.80;36.70;;;;;;5034368;28;20222;-68
2022/04/17 17:59:02;;;;;;;2.40;2.20;;;11.80;37.20;;;;;;5034489;28;20170;-68
2022/04/17 18:01:34;;;;;;;2.50;2.10;;;11.80;37.70;;;;;;5034347;28;20179;-69
2022/04/17 18:03:59;;;;;;;2.60;2.40;;;11.70;37.90;;;;;;5033784;28;20167;-69
2022/04/17 18:06:48;;;;;;;2.78;2.53;;;11.70;38.40;;;;;;5033949;28;20576;-68
2022/04/17 18:19:22;;;;;;;11.65;7.90;;;11.30;40.10;;;;;;5034844;28;20163;-70
2022/04/17 18:22:37;;;;;;;11.88;5.80;;;11.20;40.50;;;;;;5034682;28;20543;-69
2022/04/17 18:24:43;;;;;;;6.43;4.00;;;11.10;41.00;;;;;;5034291;28;20175;-69
2022/04/17 18:27:09;;;;;;;5.80;4.68;;;11.00;41.40;;;;;;5033050;28;20214;-70
2022/04/17 18:30:29;;;;;;;9.18;5.32;;;10.90;41.60;;;;;;5033168;28;20170;-70
2022/04/17 18:33:50;;;;;;;6.38;5.10;;;10.90;42.10;;;;;;5035135;28;20246;-69
2022/04/17 18:37:07;;;;;;;5.43;3.92;;;10.80;42.50;;;;;;5033195;28;20241;-69
2022/04/17 18:39:33;;;;;;;5.63;4.80;;;10.70;42.70;;;;;;5033642;28;20261;-69
2022/04/17 18:42:00;;;;;;;4.68;3.88;;;10.60;43.10;;;;;;5033086;28;20220;-69
2022/04/17 18:44:25;;;;;;;6.10;5.10;;;10.50;43.20;;;;;;5033257;28;20544;-70
2022/04/17 18:46:51;;;;;;;8.80;6.00;;;10.50;43.70;;;;;;5033107;28;20306;-69
2022/04/17 18:49:16;;;;;;;4.70;4.03;;;10.40;44.10;;;;;;5032889;28;20186;-69
2022/04/17 18:51:42;;;;;;;3.70;2.90;;;10.30;44.70;;;;;;5033187;28;20178;-69
2022/04/17 18:54:07;;;;;;;6.72;3.75;;;10.20;44.90;;;;;;5032837;28;20190;-69
2022/04/17 18:56:33;;;;;;;3.67;3.38;;;10.20;45.00;;;;;;5032766;28;20206;-69
2022/04/17 18:59:04;;;;;;;3.85;2.80;;;10.20;45.30;;;;;;5033543;28;20185;-69
2022/04/17 19:01:33;;;;;;;3.53;3.20;;;10.10;45.70;;;;;;5032484;28;20171;-69
2022/04/17 19:03:58;;;;;;;4.38;3.50;;;10.10;45.80;;;;;;5032480;28;20202;-69
2022/04/17 19:06:24;;;;;;;4.88;3.10;;;10.10;45.80;;;;;;5032521;28;20632;-69
2022/04/17 19:09:01;;;;;;;3.88;3.28;;;10.10;46.10;;;;;;5033798;28;20176;-69
2022/04/17 19:14:31;;;;;;;2.13;2.03;;;9.90;46.90;;;;;;5039774;28;20196;-69
2022/04/17 19:16:56;;;;;;;3.05;2.72;;;9.80;47.40;;;;;;5052168;28;20225;-69
2022/04/17 19:19:22;;;;;;;3.60;3.30;;;9.80;47.60;;;;;;5052407;28;20657;-69
2022/04/17 19:21:47;;;;;;;4.97;4.18;;;9.80;47.90;;;;;;5052258;28;20181;-67
2022/04/17 19:24:13;;;;;;;3.47;2.80;;;9.80;48.10;;;;;;5052151;28;20205;-67
2022/04/17 19:27:04;;;;;;;2.92;2.60;;;9.70;48.30;;;;;;5053362;28;20300;-67
2022/04/17 19:29:30;;;;;;;3.15;2.60;;;9.70;48.70;;;;;;5053258;28;20169;-67
2022/04/17 19:38:08;;;;;;;4.93;2.63;;;9.40;49.70;;;;;;5053485;28;20189;-67
2022/04/17 19:40:35;;;;;;;6.63;3.20;;;9.30;50.30;;;;;;5052338;28;20178;-68
2022/04/17 19:46:42;;;;;;;3.33;2.63;;;9.30;50.80;;;;;;5033230;28;20218;-69
2022/04/17 19:49:08;;;;;;;4.43;4.03;;;9.20;51.20;;;;;;5032161;28;20185;-69
2022/04/17 19:51:33;;;;;;;4.90;4.40;;;9.20;51.40;;;;;;5033341;28;20167;-69
2022/04/17 19:53:59;;;;;;;8.68;5.90;;;9.20;51.50;;;;;;5032637;28;20171;-69
2022/04/17 19:56:25;;;;;;;5.32;4.82;;;9.10;51.80;;;;;;5032463;28;20294;-70
2022/04/17 19:58:50;;;;;;;3.72;3.35;;;9.10;52.10;;;;;;5033487;28;20700;-69
2022/04/17 20:01:16;;;;;;;3.45;2.83;;;9.00;52.40;;;;;;5032797;28;20183;-69
2022/04/17 20:03:42;;;;;;;4.18;2.97;;;9.00;52.80;;;;;;5032406;28;20542;-69
2022/04/17 20:06:09;;;;;;;4.10;3.38;;;8.90;53.20;;;;;;5032103;28;20230;-69
2022/04/17 20:08:36;;;;;;;5.60;4.07;;;8.80;53.60;;;;;;5033121;28;20688;-69
2022/04/17 20:11:01;;;;;;;4.22;3.38;;;8.80;53.90;;;;;;5033225;28;20262;-69
2022/04/17 20:13:29;;;;;;;6.03;2.90;;;8.70;54.20;;;;;;5032316;28;20271;-69
2022/04/17 20:15:56;;;;;;;8.85;3.00;;;8.70;54.60;;;;;;5032145;28;20218;-71
2022/04/17 20:18:22;;;;;;;3.45;2.25;;;8.70;54.80;;;;;;5032334;28;20183;-71
2022/04/17 20:20:48;;;;;;;3.13;2.45;;;8.70;55.00;;;;;;5033016;28;20321;-71
2022/04/17 20:23:13;;;;;;;2.50;2.30;;;8.80;55.10;;;;;;5032764;28;20596;-71
2022/04/17 20:25:39;;;;;;;3.95;2.40;;;8.90;55.20;;;;;;5033047;28;20284;-72
2022/04/17 20:28:29;;;;;;;4.05;2.60;;;8.90;55.50;;;;;;5032096;28;20185;-72
2022/04/17 20:30:55;;;;;;;2.03;1.92;;;8.90;55.70;;;;;;5032421;28;20181;-71
2022/04/17 20:33:21;;;;;;;2.20;2.00;;;8.90;56.00;;;;;;5033160;28;20179;-72
2022/04/17 20:35:48;;;;;;;3.97;2.42;;;8.90;56.20;;;;;;5036874;28;20290;-73
2022/04/17 20:38:15;;;;;;;3.97;2.58;;;8.90;56.40;;;;;;5037003;28;20179;-73
2022/04/17 20:40:41;;;;;;;3.05;2.25;;;8.90;56.50;;;;;;5037207;28;20696;-72
2022/04/17 20:51:29;;;;;;;3.63;2.50;;;8.60;57.70;;;;;;5036991;28;20294;-72
2022/04/17 20:53:54;;;;;;;4.15;2.50;;;8.50;58.10;;;;;;5036194;28;20642;-70
2022/04/17 20:56:26;;;;;;;4.57;2.70;;;8.50;58.40;;;;;;5035851;28;20206;-70
2022/04/17 20:59:08;;;;;;;2.97;2.53;;;8.40;58.90;;;;;;5034892;28;20182;-69
2022/04/17 21:01:33;;;;;;;29.95;20.60;;;8.30;59.20;;;;;;5036284;28;20202;-69
2022/04/17 21:04:04;;;;;;;32.10;21.80;;;8.30;59.30;;;;;;5034702;28;20179;-68
2022/04/17 21:06:45;;;;;;;19.25;14.18;;;8.30;59.60;;;;;;5034996;28;20206;-69
2022/04/17 21:09:11;;;;;;;14.63;11.40;;;8.20;60.00;;;;;;5036046;28;20171;-67
2022/04/17 21:11:37;;;;;;;3.70;3.40;;;8.20;60.20;;;;;;5050344;28;20225;-67
2022/04/17 21:14:02;;;;;;;7.22;4.90;;;8.20;60.60;;;;;;5054488;28;20178;-70
2022/04/17 21:16:28;;;;;;;4.05;3.65;;;8.20;60.60;;;;;;5054178;28;20198;-67
2022/04/17 21:18:54;;;;;;;4.63;3.63;;;8.20;60.90;;;;;;5054245;28;20185;-67
2022/04/17 21:21:20;;;;;;;3.33;3.03;;;8.10;61.40;;;;;;5054558;28;20186;-67
2022/04/17 21:23:45;;;;;;;4.25;3.10;;;8.10;61.70;;;;;;5054401;28;20653;-67
2022/04/17 21:26:11;;;;;;;4.20;3.00;;;8.10;61.90;;;;;;5054123;28;20301;-67
2022/04/17 21:28:36;;;;;;;3.90;2.80;;;8.00;62.30;;;;;;5054042;28;20269;-67
2022/04/17 21:31:02;;;;;;;3.50;3.05;;;7.90;62.50;;;;;;5055340;28;20223;-67
2022/04/17 21:33:28;;;;;;;2.97;2.70;;;7.90;62.90;;;;;;5054039;28;20201;-67
2022/04/17 21:35:53;;;;;;;3.03;2.80;;;7.90;63.10;;;;;;5055058;28;20194;-67
2022/04/17 21:38:19;;;;;;;3.42;3.13;;;7.80;63.20;;;;;;5054230;28;20182;-67
2022/04/17 21:40:45;;;;;;;4.78;3.15;;;7.80;63.40;;;;;;5053904;28;20711;-67